sensor_id;sensor_type;location;lat;lon;timestamp;pressure;altitude;pressure_sealevel;temperature;humidity
12991;BME280;6560;57.692;11.958;2022-12-19T00:01:19;102246.28;;;8.70;100.00
12991;BME280;6560;57.692;11.958;2022-12-19T00:03:47;102155.53;;;8.01;100.00
12991;BME280;6560;57.692;11.958;2022-12-19T00:06:14;102200.06;;;8.39;100.00
12991;BME280;6560;57.692;11.958;2022-12-19T00:08:41;102180.19;;;7.86;100.00
12991;BME280;6560;57.692;11.958;2022-12-19T00:11:09;102227.31;;;8.82;100.00
12991;BME280;6560;57.692;11.958;2022-12-19T00:13:35;102184.28;;;8.24;100.00
12991;BME280;6560;57.692;11.958;2022-12-19T00:16:05;102192.53;;;8.27;100.00
12991;BME280;6560;57.692;11.958;2022-12-19T00:18:31;102084.16;;;7.96;100.00
12991;BME280;6560;57.692;11.958;2022-12-19T00:21:02;102182.50;;;8.07;100.00
12991;BME280;6560;57.692;11.958;2022-12-19T00:23:30;102164.13;;;7.67;100.00
12991;BME280;6560;57.692;11.958;2022-12-19T00:26:14;101948.22;;;6.88;100.00
12991;BME280;6560;57.692;11.958;2022-12-19T00:28:41;102199.94;;;7.51;100.00
12991;BME280;6560;57.692;11.958;2022-12-19T00:31:07;102176.28;;;8.47;100.00
12991;BME280;6560;57.692;11.958;2022-12-19T00:33:34;102175.38;;;7.66;100.00
12991;BME280;6560;57.692;11.958;2022-12-19T00:36:03;102178.41;;;7.78;100.00
12991;BME280;6560;57.692;11.958;2022-12-19T00:38:29;102173.63;;;7.82;100.00
12991;BME280;6560;57.692;11.958;2022-12-19T00:41:05;102148.94;;;8.29;100.00
12991;BME280;6560;57.692;11.958;2022-12-19T00:43:31;102107.13;;;7.26;100.00
12991;BME280;6560;57.692;11.958;2022-12-19T00:45:57;102136.63;;;7.16;100.00
12991;BME280;6560;57.692;11.958;2022-12-19T00:48:22;102107.72;;;7.08;100.00
12991;BME280;6560;57.692;11.958;2022-12-19T00:50:47;102160.16;;;7.08;100.00
12991;BME280;6560;57.692;11.958;2022-12-19T00:53:13;102144.81;;;7.51;100.00
12991;BME280;6560;57.692;11.958;2022-12-19T00:55:39;102132.19;;;7.55;100.00
12991;BME280;6560;57.692;11.958;2022-12-19T00:58:04;102107.72;;;7.88;100.00
12991;BME280;6560;57.692;11.958;2022-12-19T01:00:30;102104.25;;;7.56;100.00
12991;BME280;6560;57.692;11.958;2022-12-19T01:02:55;102126.81;;;8.02;100.00
12991;BME280;6560;57.692;11.958;2022-12-19T01:05:21;102114.81;;;7.80;100.00
12991;BME280;6560;57.692;11.958;2022-12-19T01:07:46;102107.13;;;7.90;100.00
12991;BME280;6560;57.692;11.958;2022-12-19T01:10:12;102113.69;;;8.02;100.00
12991;BME280;6560;57.692;11.958;2022-12-19T01:12:38;102094.78;;;8.14;100.00
12991;BME280;6560;57.692;11.958;2022-12-19T01:15:10;102110.13;;;7.38;100.00
12991;BME280;6560;57.692;11.958;2022-12-19T01:17:36;102098.88;;;8.03;100.00
12991;BME280;6560;57.692;11.958;2022-12-19T01:20:01;102094.63;;;8.21;100.00
12991;BME280;6560;57.692;11.958;2022-12-19T01:22:27;102054.63;;;7.66;100.00
12991;BME280;6560;57.692;11.958;2022-12-19T01:24:52;102079.03;;;8.47;100.00
12991;BME280;6560;57.692;11.958;2022-12-19T01:27:18;102084.03;;;7.55;100.00
12991;BME280;6560;57.692;11.958;2022-12-19T01:29:43;102082.00;;;8.01;100.00
12991;BME280;6560;57.692;11.958;2022-12-19T01:32:09;102079.66;;;7.95;100.00
12991;BME280;6560;57.692;11.958;2022-12-19T01:34:34;102074.31;;;8.02;100.00
12991;BME280;6560;57.692;11.958;2022-12-19T01:37:00;102029.28;;;8.57;100.00
12991;BME280;6560;57.692;11.958;2022-12-19T01:39:26;102060.09;;;8.00;100.00
12991;BME280;6560;57.692;11.958;2022-12-19T01:41:51;101959.91;;;6.67;100.00
12991;BME280;6560;57.692;11.958;2022-12-19T01:44:17;101883.72;;;6.10;100.00
12991;BME280;6560;57.692;11.958;2022-12-19T01:46:48;101988.84;;;6.76;100.00
12991;BME280;6560;57.692;11.958;2022-12-19T01:49:27;102030.38;;;7.60;100.00
12991;BME280;6560;57.692;11.958;2022-12-19T01:51:56;101909.28;;;7.24;100.00
12991;BME280;6560;57.692;11.958;2022-12-19T01:54:31;102004.59;;;7.97;100.00
12991;BME280;6560;57.692;11.958;2022-12-19T01:57:00;101993.53;;;7.76;100.00
12991;BME280;6560;57.692;11.958;2022-12-19T01:59:31;101946.44;;;8.19;100.00
12991;BME280;6560;57.692;11.958;2022-12-19T02:02:03;101898.88;;;7.08;100.00
12991;BME280;6560;57.692;11.958;2022-12-19T02:04:32;101987.44;;;7.59;100.00
12991;BME280;6560;57.692;11.958;2022-12-19T02:07:00;101975.78;;;7.82;100.00
12991;BME280;6560;57.692;11.958;2022-12-19T02:09:27;101983.06;;;7.51;100.00
12991;BME280;6560;57.692;11.958;2022-12-19T02:11:53;101952.34;;;7.50;100.00
12991;BME280;6560;57.692;11.958;2022-12-19T02:14:19;101943.81;;;7.44;100.00
12991;BME280;6560;57.692;11.958;2022-12-19T02:25:15;101960.91;;;7.65;100.00
12991;BME280;6560;57.692;11.958;2022-12-19T02:27:52;101968.06;;;8.16;100.00
12991;BME280;6560;57.692;11.958;2022-12-19T02:33:16;101958.31;;;8.15;100.00
12991;BME280;6560;57.692;11.958;2022-12-19T02:35:45;101960.38;;;7.52;100.00
12991;BME280;6560;57.692;11.958;2022-12-19T02:40:49;101934.81;;;7.99;100.00
12991;BME280;6560;57.692;11.958;2022-12-19T02:43:17;101838.28;;;8.23;100.00
12991;BME280;6560;57.692;11.958;2022-12-19T02:45:43;101923.19;;;8.56;100.00
12991;BME280;6560;57.692;11.958;2022-12-19T02:48:09;101930.75;;;8.36;100.00
12991;BME280;6560;57.692;11.958;2022-12-19T02:50:46;101893.81;;;8.77;100.00
12991;BME280;6560;57.692;11.958;2022-12-19T02:53:14;101905.94;;;9.29;100.00
12991;BME280;6560;57.692;11.958;2022-12-19T02:58:41;101921.75;;;9.20;100.00
12991;BME280;6560;57.692;11.958;2022-12-19T03:09:45;101916.38;;;8.41;100.00
12991;BME280;6560;57.692;11.958;2022-12-19T03:12:20;101896.28;;;8.42;100.00
12991;BME280;6560;57.692;11.958;2022-12-19T03:14:48;101864.94;;;9.22;100.00
12991;BME280;6560;57.692;11.958;2022-12-19T03:17:18;101838.81;;;9.06;100.00
12991;BME280;6560;57.692;11.958;2022-12-19T03:19:43;101890.81;;;9.09;100.00
12991;BME280;6560;57.692;11.958;2022-12-19T03:22:10;101876.75;;;9.08;100.00
12991;BME280;6560;57.692;11.958;2022-12-19T03:24:36;101858.38;;;8.91;100.00
12991;BME280;6560;57.692;11.958;2022-12-19T03:27:07;101873.69;;;8.95;100.00
12991;BME280;6560;57.692;11.958;2022-12-19T03:29:39;101869.91;;;9.19;100.00
12991;BME280;6560;57.692;11.958;2022-12-19T03:32:10;101856.50;;;8.99;100.00
12991;BME280;6560;57.692;11.958;2022-12-19T03:34:45;101833.47;;;9.32;100.00
12991;BME280;6560;57.692;11.958;2022-12-19T03:37:14;101840.94;;;9.19;100.00
12991;BME280;6560;57.692;11.958;2022-12-19T03:39:45;101835.91;;;9.12;100.00
12991;BME280;6560;57.692;11.958;2022-12-19T03:42:13;101787.81;;;8.96;100.00
12991;BME280;6560;57.692;11.958;2022-12-19T03:44:59;101833.31;;;8.86;100.00
12991;BME280;6560;57.692;11.958;2022-12-19T03:49:57;101809.25;;;9.81;100.00
12991;BME280;6560;57.692;11.958;2022-12-19T03:55:05;101720.66;;;9.27;100.00
12991;BME280;6560;57.692;11.958;2022-12-19T03:57:40;101746.09;;;8.82;100.00
12991;BME280;6560;57.692;11.958;2022-12-19T04:00:11;101794.63;;;9.38;100.00
12991;BME280;6560;57.692;11.958;2022-12-19T04:02:39;101708.81;;;8.07;100.00
12991;BME280;6560;57.692;11.958;2022-12-19T04:05:11;101637.31;;;7.57;100.00
12991;BME280;6560;57.692;11.958;2022-12-19T04:07:38;101803.34;;;8.24;100.00
12991;BME280;6560;57.692;11.958;2022-12-19T04:10:07;101802.44;;;7.39;100.00
12991;BME280;6560;57.692;11.958;2022-12-19T04:12:38;101781.13;;;8.46;100.00
12991;BME280;6560;57.692;11.958;2022-12-19T04:15:06;101753.53;;;8.77;100.00
12991;BME280;6560;57.692;11.958;2022-12-19T04:17:45;101701.66;;;8.49;100.00
12991;BME280;6560;57.692;11.958;2022-12-19T04:20:19;101793.41;;;9.26;100.00
12991;BME280;6560;57.692;11.958;2022-12-19T04:23:12;101787.09;;;8.28;100.00
12991;BME280;6560;57.692;11.958;2022-12-19T04:25:48;101775.84;;;8.03;100.00
12991;BME280;6560;57.692;11.958;2022-12-19T04:28:24;101762.97;;;8.75;100.00
12991;BME280;6560;57.692;11.958;2022-12-19T04:30:52;101740.78;;;7.85;100.00
12991;BME280;6560;57.692;11.958;2022-12-19T04:33:18;101776.22;;;7.56;100.00
12991;BME280;6560;57.692;11.958;2022-12-19T04:35:43;101764.41;;;7.94;100.00
12991;BME280;6560;57.692;11.958;2022-12-19T04:38:09;101750.31;;;7.76;100.00
12991;BME280;6560;57.692;11.958;2022-12-19T04:40:35;101758.50;;;7.12;100.00
12991;BME280;6560;57.692;11.958;2022-12-19T04:43:01;101746.84;;;7.26;100.00
12991;BME280;6560;57.692;11.958;2022-12-19T04:45:26;101777.56;;;7.02;100.00
12991;BME280;6560;57.692;11.958;2022-12-19T04:47:59;101682.25;;;6.03;100.00
12991;BME280;6560;57.692;11.958;2022-12-19T04:50:24;101761.47;;;6.91;100.00
12991;BME280;6560;57.692;11.958;2022-12-19T04:52:50;101745.78;;;7.32;100.00
12991;BME280;6560;57.692;11.958;2022-12-19T04:55:15;101723.59;;;6.38;100.00
12991;BME280;6560;57.692;11.958;2022-12-19T04:57:41;101735.56;;;6.85;100.00
12991;BME280;6560;57.692;11.958;2022-12-19T05:00:07;101752.31;;;7.11;100.00
12991;BME280;6560;57.692;11.958;2022-12-19T05:02:34;101726.66;;;7.33;100.00
12991;BME280;6560;57.692;11.958;2022-12-19T05:04:59;101717.13;;;7.09;100.00
12991;BME280;6560;57.692;11.958;2022-12-19T05:07:25;101677.59;;;6.82;100.00
12991;BME280;6560;57.692;11.958;2022-12-19T05:09:50;101735.34;;;7.58;100.00
12991;BME280;6560;57.692;11.958;2022-12-19T05:12:17;101729.25;;;7.42;100.00
12991;BME280;6560;57.692;11.958;2022-12-19T05:14:43;101717.50;;;6.79;100.00
12991;BME280;6560;57.692;11.958;2022-12-19T05:17:08;101708.94;;;7.48;100.00
12991;BME280;6560;57.692;11.958;2022-12-19T05:19:34;101721.50;;;6.52;100.00
12991;BME280;6560;57.692;11.958;2022-12-19T05:22:03;101714.59;;;7.35;100.00
12991;BME280;6560;57.692;11.958;2022-12-19T05:24:29;101714.81;;;6.71;100.00
12991;BME280;6560;57.692;11.958;2022-12-19T05:26:54;101609.75;;;6.85;100.00
12991;BME280;6560;57.692;11.958;2022-12-19T05:29:20;101620.50;;;6.71;100.00
12991;BME280;6560;57.692;11.958;2022-12-19T05:31:45;101708.94;;;7.56;100.00
12991;BME280;6560;57.692;11.958;2022-12-19T05:34:11;101699.66;;;7.69;100.00
12991;BME280;6560;57.692;11.958;2022-12-19T05:36:36;101703.59;;;7.13;100.00
12991;BME280;6560;57.692;11.958;2022-12-19T05:39:02;101696.72;;;7.40;100.00
12991;BME280;6560;57.692;11.958;2022-12-19T05:41:27;101698.69;;;6.75;100.00
12991;BME280;6560;57.692;11.958;2022-12-19T05:43:54;101696.78;;;7.07;100.00
12991;BME280;6560;57.692;11.958;2022-12-19T05:46:21;101701.00;;;6.48;100.00
12991;BME280;6560;57.692;11.958;2022-12-19T05:48:47;101669.31;;;6.29;100.00
12991;BME280;6560;57.692;11.958;2022-12-19T05:51:13;101687.28;;;6.83;100.00
12991;BME280;6560;57.692;11.958;2022-12-19T05:53:39;101611.31;;;6.92;100.00
12991;BME280;6560;57.692;11.958;2022-12-19T05:56:13;101611.88;;;6.72;100.00
12991;BME280;6560;57.692;11.958;2022-12-19T05:58:40;101648.56;;;7.31;100.00
12991;BME280;6560;57.692;11.958;2022-12-19T06:01:09;101631.91;;;7.65;100.00
12991;BME280;6560;57.692;11.958;2022-12-19T06:03:35;101593.16;;;7.36;100.00
12991;BME280;6560;57.692;11.958;2022-12-19T06:06:05;101600.59;;;7.40;100.00
12991;BME280;6560;57.692;11.958;2022-12-19T06:08:32;101640.84;;;7.75;100.00
12991;BME280;6560;57.692;11.958;2022-12-19T06:10:58;101619.19;;;8.04;100.00
12991;BME280;6560;57.692;11.958;2022-12-19T06:13:25;101642.41;;;7.65;100.00
12991;BME280;6560;57.692;11.958;2022-12-19T06:15:56;101601.94;;;7.63;100.00
12991;BME280;6560;57.692;11.958;2022-12-19T06:18:22;101649.81;;;7.51;100.00
12991;BME280;6560;57.692;11.958;2022-12-19T06:21:06;101620.25;;;7.02;100.00
12991;BME280;6560;57.692;11.958;2022-12-19T06:23:33;101648.56;;;7.39;100.00
12991;BME280;6560;57.692;11.958;2022-12-19T06:26:00;101553.50;;;7.42;100.00
12991;BME280;6560;57.692;11.958;2022-12-19T06:28:27;101642.00;;;8.22;100.00
12991;BME280;6560;57.692;11.958;2022-12-19T06:30:57;101644.34;;;8.36;100.00
12991;BME280;6560;57.692;11.958;2022-12-19T06:33:24;101632.47;;;8.14;100.00
12991;BME280;6560;57.692;11.958;2022-12-19T06:36:00;101631.97;;;8.26;100.00
12991;BME280;6560;57.692;11.958;2022-12-19T06:38:27;101637.09;;;8.33;100.00
12991;BME280;6560;57.692;11.958;2022-12-19T06:40:53;101569.88;;;7.13;100.00
12991;BME280;6560;57.692;11.958;2022-12-19T06:43:44;101662.16;;;8.04;100.00
12991;BME280;6560;57.692;11.958;2022-12-19T06:46:10;101579.97;;;8.05;100.00
12991;BME280;6560;57.692;11.958;2022-12-19T06:48:35;101650.75;;;7.86;100.00
12991;BME280;6560;57.692;11.958;2022-12-19T06:51:01;101602.84;;;7.97;100.00
12991;BME280;6560;57.692;11.958;2022-12-19T06:53:27;101581.13;;;7.38;100.00
12991;BME280;6560;57.692;11.958;2022-12-19T06:55:55;101618.16;;;7.84;100.00
12991;BME280;6560;57.692;11.958;2022-12-19T06:58:21;101642.09;;;7.87;100.00
12991;BME280;6560;57.692;11.958;2022-12-19T07:00:47;101558.75;;;7.50;100.00
12991;BME280;6560;57.692;11.958;2022-12-19T07:03:17;101628.44;;;8.09;100.00
12991;BME280;6560;57.692;11.958;2022-12-19T07:05:44;101615.19;;;7.90;100.00
12991;BME280;6560;57.692;11.958;2022-12-19T07:08:10;101622.97;;;7.80;100.00
12991;BME280;6560;57.692;11.958;2022-12-19T07:10:35;101527.78;;;7.91;100.00
12991;BME280;6560;57.692;11.958;2022-12-19T07:13:01;101548.53;;;7.71;100.00
12991;BME280;6560;57.692;11.958;2022-12-19T07:15:29;101545.66;;;8.04;100.00
12991;BME280;6560;57.692;11.958;2022-12-19T07:17:56;101582.34;;;7.42;100.00
12991;BME280;6560;57.692;11.958;2022-12-19T07:20:23;101595.88;;;8.07;100.00
12991;BME280;6560;57.692;11.958;2022-12-19T07:22:48;101557.78;;;8.29;100.00
12991;BME280;6560;57.692;11.958;2022-12-19T07:25:14;101526.06;;;7.12;100.00
12991;BME280;6560;57.692;11.958;2022-12-19T07:27:42;101583.44;;;7.35;100.00
12991;BME280;6560;57.692;11.958;2022-12-19T07:30:08;101586.75;;;6.74;100.00
12991;BME280;6560;57.692;11.958;2022-12-19T07:32:34;101535.94;;;7.41;100.00
12991;BME280;6560;57.692;11.958;2022-12-19T07:34:59;101368.66;;;6.59;100.00
12991;BME280;6560;57.692;11.958;2022-12-19T07:37:25;101566.31;;;7.47;100.00
12991;BME280;6560;57.692;11.958;2022-12-19T07:39:51;101510.31;;;7.47;100.00
12991;BME280;6560;57.692;11.958;2022-12-19T07:42:17;101581.66;;;8.13;100.00
12991;BME280;6560;57.692;11.958;2022-12-19T07:44:43;101561.41;;;8.12;100.00
12991;BME280;6560;57.692;11.958;2022-12-19T07:47:08;101576.34;;;7.43;100.00
12991;BME280;6560;57.692;11.958;2022-12-19T07:49:34;101547.38;;;7.94;100.00
12991;BME280;6560;57.692;11.958;2022-12-19T07:51:59;101497.78;;;8.42;100.00
12991;BME280;6560;57.692;11.958;2022-12-19T07:54:25;101478.09;;;8.93;100.00
12991;BME280;6560;57.692;11.958;2022-12-19T07:56:51;101537.81;;;9.13;100.00
12991;BME280;6560;57.692;11.958;2022-12-19T07:59:16;101529.44;;;8.52;100.00
12991;BME280;6560;57.692;11.958;2022-12-19T08:01:42;101541.72;;;8.26;100.00
12991;BME280;6560;57.692;11.958;2022-12-19T08:04:08;101478.38;;;7.34;100.00
12991;BME280;6560;57.692;11.958;2022-12-19T08:06:33;101532.25;;;8.00;100.00
12991;BME280;6560;57.692;11.958;2022-12-19T08:08:59;101523.84;;;8.58;100.00
12991;BME280;6560;57.692;11.958;2022-12-19T08:11:25;101512.31;;;8.02;100.00
12991;BME280;6560;57.692;11.958;2022-12-19T08:13:57;101534.47;;;8.32;100.00
12991;BME280;6560;57.692;11.958;2022-12-19T08:16:24;101446.00;;;8.14;100.00
12991;BME280;6560;57.692;11.958;2022-12-19T08:18:51;101471.22;;;8.39;100.00
12991;BME280;6560;57.692;11.958;2022-12-19T08:21:17;101485.19;;;8.75;100.00
12991;BME280;6560;57.692;11.958;2022-12-19T08:23:43;101474.47;;;8.36;100.00
12991;BME280;6560;57.692;11.958;2022-12-19T08:26:12;101507.88;;;8.84;100.00
12991;BME280;6560;57.692;11.958;2022-12-19T08:28:38;101511.41;;;8.65;100.00
12991;BME280;6560;57.692;11.958;2022-12-19T08:31:08;101499.31;;;8.67;100.00
12991;BME280;6560;57.692;11.958;2022-12-19T08:33:34;101490.66;;;8.68;100.00
12991;BME280;6560;57.692;11.958;2022-12-19T08:36:07;101496.66;;;8.49;100.00
12991;BME280;6560;57.692;11.958;2022-12-19T08:38:34;101499.88;;;8.19;100.00
12991;BME280;6560;57.692;11.958;2022-12-19T08:41:00;101419.75;;;8.14;100.00
12991;BME280;6560;57.692;11.958;2022-12-19T08:43:26;101500.13;;;8.39;100.00
12991;BME280;6560;57.692;11.958;2022-12-19T08:45:52;101425.94;;;8.60;100.00
12991;BME280;6560;57.692;11.958;2022-12-19T08:48:18;101415.28;;;8.77;100.00
12991;BME280;6560;57.692;11.958;2022-12-19T08:50:54;101454.72;;;9.15;100.00
12991;BME280;6560;57.692;11.958;2022-12-19T08:53:25;101411.69;;;9.14;100.00
12991;BME280;6560;57.692;11.958;2022-12-19T08:55:55;101324.59;;;8.08;100.00
12991;BME280;6560;57.692;11.958;2022-12-19T08:58:22;101481.59;;;8.29;100.00
12991;BME280;6560;57.692;11.958;2022-12-19T09:00:48;101436.94;;;8.56;100.00
12991;BME280;6560;57.692;11.958;2022-12-19T09:03:13;101474.78;;;8.86;100.00
12991;BME280;6560;57.692;11.958;2022-12-19T09:05:39;101426.53;;;8.12;100.00
12991;BME280;6560;57.692;11.958;2022-12-19T09:08:05;101461.19;;;8.35;100.00
12991;BME280;6560;57.692;11.958;2022-12-19T09:10:30;101480.47;;;8.44;100.00
12991;BME280;6560;57.692;11.958;2022-12-19T09:12:57;101475.28;;;8.54;100.00
12991;BME280;6560;57.692;11.958;2022-12-19T09:15:22;101416.31;;;8.42;100.00
12991;BME280;6560;57.692;11.958;2022-12-19T09:17:48;101410.97;;;8.59;100.00
12991;BME280;6560;57.692;11.958;2022-12-19T09:20:13;101466.22;;;8.69;100.00
12991;BME280;6560;57.692;11.958;2022-12-19T09:22:40;101373.28;;;8.88;100.00
12991;BME280;6560;57.692;11.958;2022-12-19T09:25:06;101448.25;;;9.11;100.00
12991;BME280;6560;57.692;11.958;2022-12-19T09:27:31;101400.84;;;8.18;100.00
12991;BME280;6560;57.692;11.958;2022-12-19T09:29:57;101315.13;;;7.64;100.00
12991;BME280;6560;57.692;11.958;2022-12-19T09:32:23;101356.72;;;8.14;100.00
12991;BME280;6560;57.692;11.958;2022-12-19T09:34:48;101348.84;;;8.70;100.00
12991;BME280;6560;57.692;11.958;2022-12-19T09:37:14;101430.38;;;9.46;100.00
12991;BME280;6560;57.692;11.958;2022-12-19T09:39:40;101369.66;;;8.96;100.00
12991;BME280;6560;57.692;11.958;2022-12-19T09:42:28;101420.00;;;9.19;100.00
12991;BME280;6560;57.692;11.958;2022-12-19T09:47:47;101379.34;;;8.49;100.00
12991;BME280;6560;57.692;11.958;2022-12-19T09:50:30;101411.03;;;8.69;100.00
12991;BME280;6560;57.692;11.958;2022-12-19T09:53:01;101390.97;;;8.61;100.00
12991;BME280;6560;57.692;11.958;2022-12-19T09:55:32;101361.41;;;8.83;100.00
12991;BME280;6560;57.692;11.958;2022-12-19T10:00:45;101411.38;;;8.64;100.00
12991;BME280;6560;57.692;11.958;2022-12-19T10:03:28;101405.59;;;8.87;100.00
12991;BME280;6560;57.692;11.958;2022-12-19T10:06:11;101400.28;;;8.76;100.00
12991;BME280;6560;57.692;11.958;2022-12-19T10:08:40;101302.38;;;8.04;100.00
12991;BME280;6560;57.692;11.958;2022-12-19T10:11:44;101393.59;;;8.80;100.00
12991;BME280;6560;57.692;11.958;2022-12-19T10:14:21;101381.59;;;9.50;100.00
12991;BME280;6560;57.692;11.958;2022-12-19T10:17:02;101367.09;;;10.14;100.00
12991;BME280;6560;57.692;11.958;2022-12-19T10:31:22;101348.41;;;9.13;100.00
12991;BME280;6560;57.692;11.958;2022-12-19T10:34:00;101334.84;;;9.37;100.00
12991;BME280;6560;57.692;11.958;2022-12-19T10:36:29;101338.81;;;9.13;100.00
12991;BME280;6560;57.692;11.958;2022-12-19T10:39:00;101259.50;;;9.09;100.00
12991;BME280;6560;57.692;11.958;2022-12-19T10:41:30;101335.31;;;9.23;100.00
12991;BME280;6560;57.692;11.958;2022-12-19T10:44:04;101316.94;;;8.47;100.00
12991;BME280;6560;57.692;11.958;2022-12-19T10:46:44;101331.84;;;8.29;100.00
12991;BME280;6560;57.692;11.958;2022-12-19T10:52:03;101257.97;;;8.34;100.00
12991;BME280;6560;57.692;11.958;2022-12-19T10:54:37;101331.53;;;9.01;100.00
12991;BME280;6560;57.692;11.958;2022-12-19T10:57:23;101321.78;;;9.00;100.00
12991;BME280;6560;57.692;11.958;2022-12-19T11:00:01;101249.44;;;8.18;100.00
12991;BME280;6560;57.692;11.958;2022-12-19T11:02:43;101301.91;;;8.64;100.00
12991;BME280;6560;57.692;11.958;2022-12-19T11:05:28;101321.53;;;8.49;100.00
12991;BME280;6560;57.692;11.958;2022-12-19T11:10:48;101231.81;;;8.55;100.00
12991;BME280;6560;57.692;11.958;2022-12-19T11:15:55;101303.84;;;8.57;100.00
12991;BME280;6560;57.692;11.958;2022-12-19T11:18:22;101274.66;;;8.83;100.00
12991;BME280;6560;57.692;11.958;2022-12-19T11:23:29;101231.34;;;9.08;100.00
12991;BME280;6560;57.692;11.958;2022-12-19T11:26:00;101271.88;;;9.20;100.00
12991;BME280;6560;57.692;11.958;2022-12-19T11:28:34;101220.03;;;8.22;100.00
12991;BME280;6560;57.692;11.958;2022-12-19T11:31:13;101259.28;;;9.26;100.00
12991;BME280;6560;57.692;11.958;2022-12-19T11:33:45;101146.16;;;8.57;100.00
12991;BME280;6560;57.692;11.958;2022-12-19T11:36:29;101244.88;;;9.51;100.00
12991;BME280;6560;57.692;11.958;2022-12-19T11:38:57;101229.09;;;9.02;100.00
12991;BME280;6560;57.692;11.958;2022-12-19T11:41:32;101154.13;;;9.78;100.00
12991;BME280;6560;57.692;11.958;2022-12-19T11:46:56;101234.19;;;9.80;100.00
12991;BME280;6560;57.692;11.958;2022-12-19T11:54:58;101223.53;;;9.38;100.00
12991;BME280;6560;57.692;11.958;2022-12-19T11:57:29;101218.28;;;9.38;100.00
12991;BME280;6560;57.692;11.958;2022-12-19T11:59:56;101158.66;;;9.49;100.00
12991;BME280;6560;57.692;11.958;2022-12-19T12:17:06;101119.03;;;8.19;100.00
12991;BME280;6560;57.692;11.958;2022-12-19T12:22:41;101190.66;;;9.64;100.00
12991;BME280;6560;57.692;11.958;2022-12-19T12:34:01;101186.88;;;9.01;100.00
12991;BME280;6560;57.692;11.958;2022-12-19T12:37:14;101046.41;;;8.48;100.00
12991;BME280;6560;57.692;11.958;2022-12-19T12:51:20;101154.34;;;8.80;100.00
12991;BME280;6560;57.692;11.958;2022-12-19T12:54:51;101142.50;;;8.65;100.00
12991;BME280;6560;57.692;11.958;2022-12-19T12:57:37;100748.00;;;6.42;100.00
12991;BME280;6560;57.692;11.958;2022-12-19T13:00:37;100829.50;;;6.74;100.00
12991;BME280;6560;57.692;11.958;2022-12-19T13:03:18;101125.72;;;8.93;100.00
12991;BME280;6560;57.692;11.958;2022-12-19T13:06:39;101130.09;;;9.13;100.00
12991;BME280;6560;57.692;11.958;2022-12-19T13:09:29;100723.31;;;6.59;100.00
12991;BME280;6560;57.692;11.958;2022-12-19T13:12:29;100781.41;;;6.73;100.00
12991;BME280;6560;57.692;11.958;2022-12-19T13:15:35;100958.06;;;8.30;100.00
12991;BME280;6560;57.692;11.958;2022-12-19T13:19:01;100758.25;;;6.12;100.00
12991;BME280;6560;57.692;11.958;2022-12-19T13:21:12;100787.53;;;7.22;100.00
12991;BME280;6560;57.692;11.958;2022-12-19T13:23:45;100458.19;;;4.59;100.00
12991;BME280;6560;57.692;11.958;2022-12-19T13:26:22;101091.88;;;8.28;100.00
12991;BME280;6560;57.692;11.958;2022-12-19T13:29:30;100888.56;;;7.47;100.00
12991;BME280;6560;57.692;11.958;2022-12-19T13:32:14;101081.47;;;8.38;100.00
12991;BME280;6560;57.692;11.958;2022-12-19T13:35:38;101050.00;;;9.30;100.00
12991;BME280;6560;57.692;11.958;2022-12-19T13:38:22;101052.00;;;9.12;100.00
12991;BME280;6560;57.692;11.958;2022-12-19T13:41:01;100479.78;;;5.52;100.00
12991;BME280;6560;57.692;11.958;2022-12-19T13:44:03;100721.72;;;6.90;100.00
12991;BME280;6560;57.692;11.958;2022-12-19T13:46:42;100686.03;;;6.71;100.00
12991;BME280;6560;57.692;11.958;2022-12-19T13:51:58;100920.22;;;7.69;100.00
12991;BME280;6560;57.692;11.958;2022-12-19T13:54:35;100890.22;;;7.36;100.00
12991;BME280;6560;57.692;11.958;2022-12-19T13:57:37;101099.78;;;8.67;100.00
12991;BME280;6560;57.692;11.958;2022-12-19T14:00:20;100464.38;;;5.07;100.00
12991;BME280;6560;57.692;11.958;2022-12-19T14:02:53;100344.22;;;5.07;100.00
12991;BME280;6560;57.692;11.958;2022-12-19T14:05:45;100799.16;;;8.15;100.00
12991;BME280;6560;57.692;11.958;2022-12-19T14:09:07;101020.91;;;9.28;100.00
12991;BME280;6560;57.692;11.958;2022-12-19T14:11:43;100818.28;;;7.53;100.00
12991;BME280;6560;57.692;11.958;2022-12-19T14:14:15;101032.38;;;8.29;100.00
12991;BME280;6560;57.692;11.958;2022-12-19T14:17:27;101032.38;;;8.19;100.00
12991;BME280;6560;57.692;11.958;2022-12-19T14:19:53;101034.06;;;8.57;100.00
12991;BME280;6560;57.692;11.958;2022-12-19T14:22:35;101002.66;;;8.49;100.00
12991;BME280;6560;57.692;11.958;2022-12-19T14:25:51;100898.91;;;7.84;100.00
12991;BME280;6560;57.692;11.958;2022-12-19T14:28:37;100993.22;;;8.22;100.00
12991;BME280;6560;57.692;11.958;2022-12-19T14:31:11;100979.28;;;8.02;100.00
12991;BME280;6560;57.692;11.958;2022-12-19T14:33:41;101007.38;;;8.73;100.00
12991;BME280;6560;57.692;11.958;2022-12-19T14:36:32;101006.38;;;8.22;100.00
12991;BME280;6560;57.692;11.958;2022-12-19T14:39:37;100982.69;;;9.01;100.00
12991;BME280;6560;57.692;11.958;2022-12-19T14:42:13;101004.53;;;8.60;100.00
12991;BME280;6560;57.692;11.958;2022-12-19T14:54:01;101009.72;;;9.83;100.00
12991;BME280;6560;57.692;11.958;2022-12-19T14:57:15;100996.25;;;10.22;100.00
12991;BME280;6560;57.692;11.958;2022-12-19T14:59:45;100740.63;;;8.06;100.00
12991;BME280;6560;57.692;11.958;2022-12-19T15:02:30;101000.38;;;9.34;100.00
12991;BME280;6560;57.692;11.958;2022-12-19T15:05:18;100966.53;;;9.81;100.00
12991;BME280;6560;57.692;11.958;2022-12-19T15:07:53;100965.59;;;9.48;100.00
12991;BME280;6560;57.692;11.958;2022-12-19T15:10:23;100995.16;;;9.24;100.00
12991;BME280;6560;57.692;11.958;2022-12-19T15:15:57;100949.03;;;8.97;100.00